Terminal Aerodrome Forecast
Issued by NWS

Home | Current Version | Previous Version | Text Only | Print | Product List | Glossary On
Versions: 1 2 3 4 5 6 7 8 9 10 11 12 13 14 15 16 17 18 19 20 21 22 23
000
FTUS46 KPDT 171212 CCA
TAFPSC
TAF COR
KPSC 171212Z 1712/1812 VRB03KT 1 1/2SM BR OVC003
     FM171500 00000KT 3SM BR OVC005
     FM171600 22003KT P6SM SCT008 BKN060 OVC100
     FM171700 23004KT P6SM -RA BKN060 OVC090
     FM180200 20007KT P6SM SCT080 BKN100=

USA.gov is the U.S. government's official web portal to all federal, state and local government web resources and services.